Terminal Aerodrome Forecast
Issued by NWS

Home | Current Version | Previous Version | Text Only | Print | Product List | Glossary On
Versions: 1 2 3 4 5 6 7 8 9 10 11 12 13 14 15 16 17 18 19 20 21 22 23 24 25
000
FTUS41 KOKX 010800 AAA
TAFGON
TAF AMD
KGON 010832Z 0109/0206 29012KT P6SM SCT250
     FM012000 28005KT P6SM FEW030 BKN060
     FM020000 VRB03KT P6SM SCT025 OVC040
     FM020400 08008KT 2SM -SN OVC010=

USA.gov is the U.S. government's official web portal to all federal, state and local government web resources and services.